Fort Lauderdale Hollywood International Airport
KFLL : rendu visible

Aérodrome :











RETROUVEZ-NOUS SUR...

 
LOGIN :

S'inscrire | Disclaimer

   EN    FR    IT 

 









Légende :    VFR   VFR Marginal   IFR   IFR Intensif   IFR Très Intensif
Visi : 
Plafond : 
>= 8 km
>= 3000ft
5 à 8 km
1000 à 3000 ft
1500m à 5 km
500 à 1000 ft
800 à 1500m
200 à 500 ft
< 800m
< 200 ft
Symboles :   Orages  Brouillard  Fortes neiges  Fortes précipitations  Vent > 20 kt






- Altitude de l'aérodrome : 9 ft
- Code IATA : FLL


KFLL - Fort Lauderdale Hollywood International

DERNIER METAR :
  • 030953Z 26003KT 10SM FEW250 27/23 A2994 RMK AO2 SLP138 T02720228

METARs EXPIRÉS :
  • 030853Z 24003KT 10SM FEW200 27/23 A2993 RMK AO2 SLP136 T02720228 56009
  • 030753Z 24004KT 10SM SCT200 28/22 A2993 RMK AO2 SLP136 T02780222

TAF KFLL
Valide du 03 à 09h jusqu'au 04 à 12h UTC


030856Z 0309/0412 VRB04KT P6SM SCT040 SCT200
FM031700 16011KT P6SM SCT040 SCT250
PROB30 0320/0324 TS BKN035CB
FM040000 20007KT P6SM VCSH SCT050 SCT250
FM040300 VRB04KT P6SM FEW040 SCT250
FIR KZMA / Amérique du Nord



MET'MAP, la Météo Aéronautique d'un coup d'oeil ! - Copyright ORBIFLY Décembre 2007 - Disclaimer

ORBIFLY MET'MAP TEAM :

Programmation & Développement : Alexandra Zaïnal
Sur une idée originale de : Baudouin d'Aumeries
Assistance à la programmation : Marc-Olivier Méhu
Soutien technique & logistique : Manuel Goepfert

Contact : metmap@orbifly.com




SOURCES & CREDITS :

   NOAA       Earth
Advisory